This is the latest recevied weather packets stored in our database for station/object 9M2ABD-1. If no packets are shown the sender has not sent any weather packets the latest 10 day(s).
| Time | Temp. | Humidity | Pressure | Rain* | Wind** | Luminosity | Snow |
|---|---|---|---|---|---|---|---|
| 1777615225 | 30.56° C | 75% | 1009.9 hPa | - | - | - | - |
| 1777613971 | 30.56° C | 76% | 1010.2 hPa | - | - | - | - |
| 1777612771 | 30.56° C | 76% | 1010.2 hPa | - | - | - | - |
| 1777611571 | 30.56° C | 78% | 1010.6 hPa | - | - | - | - |
| 1777610410 | 30.56° C | 76% | 1010.6 hPa | - | - | - | - |
| 1777610371 | 30.56° C | 76% | 1010.6 hPa | - | - | - | - |
| 1777609220 | 31.11° C | 74% | 1010.3 hPa | - | - | - | - |
| 1777609171 | 31.11° C | 74% | 1010.3 hPa | - | - | - | - |
| 1777607971 | 31.67° C | 68% | 1010.4 hPa | - | - | - | - |
| 1777606771 | 31.67° C | 69% | 1011 hPa | - | - | - | - |
| 1777605571 | 31.11° C | 72% | 1011.2 hPa | - | - | - | - |
| 1777604371 | 30.56° C | 74% | 1011 hPa | - | - | - | - |
| 1777603171 | 30.56° C | 76% | 1011.2 hPa | - | - | - | - |
| 1777601977 | 30.56° C | 78% | 1011.1 hPa | - | - | - | - |
| 1777583971 | 29.44° C | 77% | 1009.2 hPa | - | - | - | - |
| 1777582771 | 29.44° C | 77% | 1008.9 hPa | - | - | - | - |
| 1777581571 | 29.44° C | 77% | 1009 hPa | - | - | - | - |
| 1777580371 | 30° C | 77% | 1009.2 hPa | - | - | - | - |
| 1777579171 | 30° C | 77% | 1009 hPa | - | - | - | - |
| 1777577971 | 30° C | 77% | 1009.2 hPa | - | - | - | - |
| 1777575570 | 30° C | 77% | 1009.6 hPa | - | - | - | - |
| 1777574370 | 30° C | 77% | 1009.7 hPa | - | - | - | - |
| 1777573173 | 30° C | 77% | 1010 hPa | - | - | - | - |
| 1777570770 | 30° C | 77% | 1010.8 hPa | - | - | - | - |
| 1777565970 | 30° C | 76% | 1011.2 hPa | - | - | - | - |
* Rain since midnight (hover to see other rain measurements)
** Current wind speed in m/s (hover to see current wind gust speed)